• Join FlightAware (Why Join?)
  • Login
  • US Flag 
04:37AM EDT


 

Airport Tracker/Info


-or-


 

Live Flight TrackerFlight Track Log ✈ JIA2328 ✈ 17-May-2013 ✈ KCLT - KOAJ

Flight Track Log - Related Links

Times and Time Zones

All times are in EDT time to prevent confusion due to time zone crossing. See the JIA2328 flight status page for this flight to view local times or setup timezone preferences in your user account.

Time Position Orientation Groundspeed Altitude Reporting Facility
EDT Latitude Longitude Course Direction KTS MPH feet Rate Location/Type
05:54PM 35.1992 -80.9353 106° East 155 178 1,600  Level Atlanta Center
05:55PM 35.1531 -80.9294 174° South 215 247 3,200 2,400 Climbing Atlanta Center
05:56PM 35.1158 -80.8547 121° Southeast 293 337 6,000 2,640 Climbing Atlanta Center
05:56PM 35.1064 -80.8169 107° East 277 319 6,900 1,440 Climbing Atlanta Center
05:57PM 35.1000 -80.6332 109° East  Level FlightAware Approximate
05:57PM 35.0892 -80.7236 103° East 316 364 8,000  Level Atlanta Center
05:58PM 35.0667 -80.5112 90° East  Level FlightAware Approximate
05:59PM 35.0399 -80.3870 106° East  Level FlightAware Approximate
05:59PM 35.0631 -80.5756 102° East 308 354 11,000  Level Washington Center
06:00PM 35.0444 -80.4731 102° East 308 354 13,200 1,740 Climbing Washington Center
06:01PM 35.0219 -80.3550 103° East 328 377 14,500 1,320 Climbing Washington Center
06:02PM 35.0036 -80.2397 101° East 362 417 15,800 1,320 Climbing Washington Center
06:03PM 34.9756 -80.1039 104° East 378 435 17,200 1,140 Climbing Washington Center
06:04PM 34.9483 -79.9908 106° East 385 443 18,200 840 Climbing Washington Center
06:05PM 34.9389 -79.8536 95° East 385 443 19,000 360 Climbing Washington Center
06:06PM 34.9439 -79.7094 88° East 402 463 19,000  Level Washington Center
06:07PM 34.9528 -79.5653 86° East 412 474 19,000  Level Washington Center
06:08PM 34.9597 -79.4186 87° East 418 481 19,000  Level Washington Center
06:09PM 34.9664 -79.2719 87° East 423 487 19,000  Level Washington Center
06:10PM 34.9708 -79.1278 88° East 423 487 19,000 -300 Level Washington Center
06:11PM 34.9772 -78.9758 87° East 423 487 18,500 -960 Descending Washington Center
06:12PM 34.9792 -78.8317 89° East 428 493 17,100 -1,620 Descending Washington Center
06:13PM 34.9619 -78.6942 99° East 422 486 15,300 -1,920 Descending Washington Center
06:14PM 34.9467 -78.5592 98° East 404 465 13,300 -2,040 Descending Washington Center
06:15PM 34.9308 -78.4344 99° East 386 444 11,300 -1,200 Descending Washington Center
06:16PM 34.9150 -78.3097 99° East 374 430 11,000 -600 Descending Washington Center
06:17PM 34.9008 -78.1928 98° East 367 422 10,100 -1,860 Descending Washington Center
06:18PM 34.8883 -78.0936 99° East 330 380 7,300 -2,820 Descending Washington Center
06:19PM 34.8611 -78.0094 111° Southeast 292 336 4,500 -2,340 Descending Washington Center
06:20PM 34.8314 -77.9250 113° Southeast 274 315 2,600 -1,380 Descending Washington Center
06:21PM 34.8017 -77.8406 113° Southeast 253 291 1,800 -600 Descending Washington Center
06:22PM 34.7903 -77.7744 102° East 253 291 1,500 -300 Descending Washington Center